Time;durP1;ratioP1;P1;durP2;ratioP2;P2;SDS_P1;SDS_P2;PMS_P1;PMS_P2;Temp;Humidity;BMP_temperature;BMP_pressure;BME280_temperature;BME280_humidity;BME280_pressure;Samples;Min_cycle;Max_cycle;Signal;HPM_P1;HPM_P2
2021/06/07 00:02:07;;;;;;;16.02;14.35;;;;;;;;;;5113031;28;20062;-69
2021/06/07 00:04:33;;;;;;;13.93;12.52;;;;;;;;;;5112602;28;20043;-69
2021/06/07 00:07:01;;;;;;;19.88;16.23;;;;;;;;;;5113043;28;20047;-67
2021/06/07 00:09:29;;;;;;;17.40;15.52;;;;;;;;;;5112438;28;20537;-68
2021/06/07 00:11:57;;;;;;;13.90;12.48;;;;;;;;;;5112653;28;20043;-68
2021/06/07 00:14:29;;;;;;;17.73;13.98;;;;;;;;;;5110592;28;20048;-68
2021/06/07 00:16:55;;;;;;;16.15;13.68;;;;;;;;;;5113092;28;20441;-68
2021/06/07 00:19:22;;;;;;;14.88;12.35;;;;;;;;;;5111689;28;20047;-68
2021/06/07 00:21:49;;;;;;;17.65;13.82;;;;;;;;;;5108406;28;20047;-68
2021/06/07 00:24:16;;;;;;;16.30;14.50;;;;;;;;;;5112101;28;20059;-68
2021/06/07 00:26:44;;;;;;;16.02;14.15;;;;;;;;;;5109906;28;20050;-69
2021/06/07 00:29:10;;;;;;;19.60;15.00;;;;;;;;;;5112393;28;20055;-69
2021/06/07 00:31:36;;;;;;;15.25;13.38;;;;;;;;;;5113112;28;20043;-69
2021/06/07 00:34:04;;;;;;;12.68;11.38;;;;;;;;;;5112784;28;20090;-69
2021/06/07 00:36:30;;;;;;;11.65;10.23;;;;;;;;;;5112942;28;20047;-69
2021/06/07 00:38:56;;;;;;;13.38;11.95;;;;;;;;;;5113651;28;20043;-69
2021/06/07 00:41:23;;;;;;;13.57;12.07;;;;;;;;;;5112768;28;20109;-69
2021/06/07 00:43:52;;;;;;;18.23;15.23;;;;;;;;;;5113215;28;20078;-69
2021/06/07 00:46:18;;;;;;;15.57;13.85;;;;;;;;;;5112468;28;20130;-69
2021/06/07 00:48:44;;;;;;;15.60;13.30;;;;;;;;;;5112523;28;20079;-69
2021/06/07 00:51:11;;;;;;;15.60;13.57;;;;;;;;;;5112933;28;20047;-69
2021/06/07 00:53:37;;;;;;;15.70;13.73;;;;;;;;;;5112840;28;20048;-69
2021/06/07 00:56:06;;;;;;;16.33;14.57;;;;;;;;;;5112205;28;20060;-69
2021/06/07 00:58:33;;;;;;;15.50;12.45;;;;;;;;;;5113063;28;20058;-69
2021/06/07 01:01:01;;;;;;;17.75;13.85;;;;;;;;;;5113128;28;20130;-69
2021/06/07 01:03:28;;;;;;;15.68;12.68;;;;;;;;;;5112642;28;20043;-69
2021/06/07 01:05:55;;;;;;;15.32;11.98;;;;;;;;;;5111882;28;20043;-68
2021/06/07 01:08:22;;;;;;;19.38;15.57;;;;;;;;;;5112437;28;20051;-68
2021/06/07 01:10:49;;;;;;;17.48;14.95;;;;;;;;;;5112685;28;20047;-69
2021/06/07 01:13:15;;;;;;;15.15;13.30;;;;;;;;;;5112780;28;20510;-68
2021/06/07 01:15:41;;;;;;;18.15;15.23;;;;;;;;;;5112278;28;20054;-68
2021/06/07 01:18:09;;;;;;;15.35;13.75;;;;;;;;;;5111772;28;20063;-68
2021/06/07 01:20:35;;;;;;;20.42;16.13;;;;;;;;;;5112378;28;20482;-68
2021/06/07 01:23:03;;;;;;;19.88;16.80;;;;;;;;;;5107019;28;20052;-68
2021/06/07 01:25:31;;;;;;;21.50;16.52;;;;;;;;;;5105402;28;20056;-68
2021/06/07 01:27:58;;;;;;;16.83;15.05;;;;;;;;;;5115886;28;20047;-68
2021/06/07 01:30:26;;;;;;;21.58;17.10;;;;;;;;;;5116018;28;20052;-68
2021/06/07 01:32:52;;;;;;;23.23;18.02;;;;;;;;;;5116235;28;20043;-68
2021/06/07 01:35:18;;;;;;;21.88;17.73;;;;;;;;;;5116001;27;20055;-68
2021/06/07 01:37:45;;;;;;;17.55;15.65;;;;;;;;;;5115632;28;20043;-68
2021/06/07 01:40:16;;;;;;;18.17;15.30;;;;;;;;;;5098234;28;20052;-68
2021/06/07 01:42:42;;;;;;;20.80;18.02;;;;;;;;;;5115646;28;20044;-69
2021/06/07 01:45:11;;;;;;;17.20;15.32;;;;;;;;;;5115879;28;20047;-69
2021/06/07 01:47:37;;;;;;;19.73;16.25;;;;;;;;;;5116139;28;20043;-69
2021/06/07 01:50:05;;;;;;;18.65;15.88;;;;;;;;;;5115638;28;20059;-69
2021/06/07 01:52:31;;;;;;;20.52;16.80;;;;;;;;;;5115753;28;20044;-69
2021/06/07 01:54:57;;;;;;;20.50;17.05;;;;;;;;;;5115995;28;20051;-69
2021/06/07 01:57:24;;;;;;;25.38;17.45;;;;;;;;;;5115359;28;20062;-68
2021/06/07 01:59:50;;;;;;;22.52;18.05;;;;;;;;;;5116005;28;20059;-69
2021/06/07 02:02:16;;;;;;;20.88;17.33;;;;;;;;;;5115948;28;20059;-69
2021/06/07 02:04:42;;;;;;;22.05;17.75;;;;;;;;;;5116008;28;20435;-69
2021/06/07 02:07:08;;;;;;;19.35;16.65;;;;;;;;;;5115343;28;20450;-72
2021/06/07 02:09:38;;;;;;;21.35;16.98;;;;;;;;;;5115434;28;20491;-69
2021/06/07 02:12:05;;;;;;;22.98;18.33;;;;;;;;;;5115882;28;20633;-69
2021/06/07 02:14:33;;;;;;;21.02;17.38;;;;;;;;;;5115567;28;20056;-69
2021/06/07 02:16:59;;;;;;;19.33;16.65;;;;;;;;;;5114858;28;20047;-69
2021/06/07 02:19:25;;;;;;;21.02;17.40;;;;;;;;;;5101632;28;20177;-68
2021/06/07 02:21:51;;;;;;;21.92;17.58;;;;;;;;;;5114143;28;20483;-69
2021/06/07 02:24:17;;;;;;;19.17;16.63;;;;;;;;;;5114788;28;20070;-69
2021/06/07 02:26:43;;;;;;;25.45;20.00;;;;;;;;;;5112687;28;20045;-69
2021/06/07 02:29:12;;;;;;;22.80;18.48;;;;;;;;;;5114460;28;20051;-69
2021/06/07 02:31:40;;;;;;;22.08;17.98;;;;;;;;;;5114363;28;20048;-69
2021/06/07 02:34:08;;;;;;;20.75;17.27;;;;;;;;;;5115307;28;20048;-68
2021/06/07 02:36:37;;;;;;;19.77;16.83;;;;;;;;;;5114552;28;20384;-69
2021/06/07 02:39:04;;;;;;;17.50;15.68;;;;;;;;;;5114713;28;20052;-69
2021/06/07 02:41:30;;;;;;;24.65;18.48;;;;;;;;;;5114797;28;20134;-69
2021/06/07 02:43:57;;;;;;;19.00;16.10;;;;;;;;;;5115182;28;20090;-68
2021/06/07 02:46:23;;;;;;;26.42;18.88;;;;;;;;;;5115216;28;20043;-69
2021/06/07 02:48:50;;;;;;;20.23;16.25;;;;;;;;;;5114510;28;20050;-69
2021/06/07 02:51:17;;;;;;;22.23;17.15;;;;;;;;;;5114564;28;20047;-69
2021/06/07 02:53:43;;;;;;;21.00;17.70;;;;;;;;;;5114794;28;20126;-68
2021/06/07 02:56:10;;;;;;;21.02;16.92;;;;;;;;;;5114392;28;20051;-69
2021/06/07 02:58:36;;;;;;;23.35;17.58;;;;;;;;;;5114438;28;20472;-69
2021/06/07 03:01:05;;;;;;;22.67;17.85;;;;;;;;;;5114682;28;20140;-68
2021/06/07 03:03:31;;;;;;;21.10;16.77;;;;;;;;;;5114860;28;20047;-68
2021/06/07 03:05:59;;;;;;;17.67;15.00;;;;;;;;;;5114716;28;20495;-68
2021/06/07 03:08:27;;;;;;;16.35;14.45;;;;;;;;;;5095780;28;20047;-68
2021/06/07 03:10:55;;;;;;;21.67;17.42;;;;;;;;;;5114355;28;20066;-68
2021/06/07 03:13:21;;;;;;;17.40;14.43;;;;;;;;;;5114586;28;20047;-68
2021/06/07 03:15:51;;;;;;;14.75;13.15;;;;;;;;;;5114123;28;20054;-68
2021/06/07 03:18:17;;;;;;;17.92;15.95;;;;;;;;;;5114233;27;20438;-69
2021/06/07 03:20:43;;;;;;;20.95;16.00;;;;;;;;;;5112921;28;20259;-69
2021/06/07 03:23:12;;;;;;;19.58;16.42;;;;;;;;;;5112816;28;20069;-68
2021/06/07 03:25:38;;;;;;;18.85;15.48;;;;;;;;;;5114259;27;20050;-68
2021/06/07 03:28:05;;;;;;;19.15;16.55;;;;;;;;;;5104149;28;20092;-69
2021/06/07 03:30:31;;;;;;;20.80;17.92;;;;;;;;;;5113551;28;20454;-69
2021/06/07 03:32:57;;;;;;;17.67;14.85;;;;;;;;;;5113731;28;20047;-69
2021/06/07 03:35:24;;;;;;;18.48;16.25;;;;;;;;;;5114333;28;20500;-68
2021/06/07 03:37:52;;;;;;;14.38;12.88;;;;;;;;;;5113884;28;20044;-68
2021/06/07 03:40:23;;;;;;;16.27;14.65;;;;;;;;;;5113805;28;20047;-69
2021/06/07 03:42:49;;;;;;;17.88;15.32;;;;;;;;;;5113594;28;20544;-68
2021/06/07 03:45:16;;;;;;;14.82;12.60;;;;;;;;;;5113588;28;20050;-68
2021/06/07 03:47:43;;;;;;;16.85;13.80;;;;;;;;;;5113371;28;20048;-68
2021/06/07 03:50:11;;;;;;;17.85;15.57;;;;;;;;;;5112895;28;20055;-68
2021/06/07 03:52:38;;;;;;;23.20;14.57;;;;;;;;;;5113414;28;20408;-69
2021/06/07 03:55:05;;;;;;;19.98;15.18;;;;;;;;;;5113569;27;20043;-68
2021/06/07 03:57:33;;;;;;;17.63;15.23;;;;;;;;;;5113826;28;20043;-68
2021/06/07 03:59:59;;;;;;;21.33;16.85;;;;;;;;;;5113441;27;20066;-69
2021/06/07 04:02:25;;;;;;;20.27;17.17;;;;;;;;;;5112899;28;20051;-69
2021/06/07 04:04:51;;;;;;;17.15;14.93;;;;;;;;;;5113633;28;20389;-69
2021/06/07 04:07:17;;;;;;;21.42;17.73;;;;;;;;;;5113343;28;20052;-69
2021/06/07 04:09:43;;;;;;;20.88;17.73;;;;;;;;;;5113563;28;20639;-69
2021/06/07 04:12:10;;;;;;;21.33;16.67;;;;;;;;;;5113306;28;20086;-69
2021/06/07 04:14:37;;;;;;;19.52;15.60;;;;;;;;;;5113473;28;20054;-69
2021/06/07 04:17:04;;;;;;;21.88;18.15;;;;;;;;;;5112998;28;20060;-69
2021/06/07 04:19:30;;;;;;;22.58;17.42;;;;;;;;;;5113683;28;20052;-69
2021/06/07 04:21:56;;;;;;;19.35;17.23;;;;;;;;;;5113336;28;20086;-68
2021/06/07 04:24:22;;;;;;;21.40;17.52;;;;;;;;;;5111519;28;20108;-68
2021/06/07 04:26:48;;;;;;;23.17;17.40;;;;;;;;;;5111734;28;20051;-68
2021/06/07 04:29:14;;;;;;;19.13;16.88;;;;;;;;;;5092200;28;20124;-69
2021/06/07 04:31:41;;;;;;;20.05;15.98;;;;;;;;;;5098794;28;20051;-69
2021/06/07 04:34:07;;;;;;;22.63;16.83;;;;;;;;;;5113212;28;20051;-68
2021/06/07 04:36:33;;;;;;;23.13;16.33;;;;;;;;;;5113387;28;20051;-69
2021/06/07 04:38:59;;;;;;;21.35;16.17;;;;;;;;;;5113679;28;20059;-69
2021/06/07 04:41:25;;;;;;;23.05;16.65;;;;;;;;;;5112249;28;20077;-69
2021/06/07 04:43:51;;;;;;;22.52;16.50;;;;;;;;;;5112228;28;20044;-69
2021/06/07 04:46:17;;;;;;;22.38;16.73;;;;;;;;;;5112436;28;20048;-69
2021/06/07 04:48:45;;;;;;;20.17;15.70;;;;;;;;;;5112592;28;20150;-69
2021/06/07 04:51:11;;;;;;;24.20;17.40;;;;;;;;;;5113109;28;20051;-69
2021/06/07 04:53:37;;;;;;;20.50;16.02;;;;;;;;;;5112989;28;20118;-69
2021/06/07 04:56:03;;;;;;;22.50;16.98;;;;;;;;;;5112646;28;20055;-69
2021/06/07 04:58:30;;;;;;;25.50;16.50;;;;;;;;;;5112696;28;20699;-69
2021/06/07 05:00:58;;;;;;;26.25;17.55;;;;;;;;;;5112541;28;20062;-69
2021/06/07 05:03:26;;;;;;;18.42;14.93;;;;;;;;;;5112974;28;20502;-69
2021/06/07 05:05:53;;;;;;;22.48;16.27;;;;;;;;;;5112646;28;20145;-69
2021/06/07 05:08:19;;;;;;;25.35;16.08;;;;;;;;;;5111369;28;20047;-69
2021/06/07 05:10:45;;;;;;;24.98;17.90;;;;;;;;;;5112579;28;20044;-69
2021/06/07 05:13:11;;;;;;;24.92;17.15;;;;;;;;;;5112825;28;20404;-69
2021/06/07 05:15:38;;;;;;;28.73;20.27;;;;;;;;;;5113088;28;20365;-69
2021/06/07 05:18:04;;;;;;;26.50;18.35;;;;;;;;;;5112537;28;20050;-69
2021/06/07 05:20:30;;;;;;;29.60;20.83;;;;;;;;;;5107545;28;20474;-69
2021/06/07 05:22:59;;;;;;;25.48;18.45;;;;;;;;;;5112115;28;20043;-69
2021/06/07 05:25:26;;;;;;;34.85;20.10;;;;;;;;;;5110316;28;20054;-69
2021/06/07 05:27:56;;;;;;;29.65;18.13;;;;;;;;;;5101622;28;20048;-69
2021/06/07 05:30:24;;;;;;;32.15;20.02;;;;;;;;;;5109359;28;20048;-69
2021/06/07 05:32:51;;;;;;;31.23;20.38;;;;;;;;;;5091560;28;20048;-68
2021/06/07 05:35:18;;;;;;;28.70;18.48;;;;;;;;;;5098866;28;20048;-69
2021/06/07 05:37:45;;;;;;;30.58;18.98;;;;;;;;;;5107143;28;20055;-68
2021/06/07 05:40:14;;;;;;;30.30;18.83;;;;;;;;;;5110310;28;20052;-68
2021/06/07 05:42:41;;;;;;;30.77;18.73;;;;;;;;;;5109229;28;20059;-68
2021/06/07 05:45:09;;;;;;;27.80;17.05;;;;;;;;;;5103858;28;20051;-68
2021/06/07 05:47:35;;;;;;;25.70;17.70;;;;;;;;;;5110977;28;20126;-68
2021/06/07 05:50:01;;;;;;;29.73;18.25;;;;;;;;;;5106598;28;20054;-68
2021/06/07 05:52:27;;;;;;;26.10;17.30;;;;;;;;;;5094452;28;20052;-68
2021/06/07 05:54:53;;;;;;;22.75;15.70;;;;;;;;;;5099730;28;20077;-68
2021/06/07 05:57:21;;;;;;;30.52;19.00;;;;;;;;;;5090663;28;20131;-68
2021/06/07 05:59:47;;;;;;;25.95;18.13;;;;;;;;;;5098413;28;20055;-68
2021/06/07 06:02:14;;;;;;;26.15;17.30;;;;;;;;;;5107829;28;20575;-68
2021/06/07 06:04:40;;;;;;;27.52;17.25;;;;;;;;;;5092459;28;20056;-68
2021/06/07 06:07:07;;;;;;;24.38;16.10;;;;;;;;;;5100447;28;20066;-68
2021/06/07 06:09:33;;;;;;;27.27;17.95;;;;;;;;;;5115026;27;20055;-68
2021/06/07 06:11:59;;;;;;;21.40;14.50;;;;;;;;;;5110486;28;20097;-68
2021/06/07 06:14:27;;;;;;;20.08;14.20;;;;;;;;;;5105200;28;20627;-68
2021/06/07 06:16:53;;;;;;;21.92;15.50;;;;;;;;;;5109924;28;20048;-68
2021/06/07 06:19:19;;;;;;;19.48;14.20;;;;;;;;;;5109380;28;20040;-68
2021/06/07 06:21:45;;;;;;;24.20;15.48;;;;;;;;;;5113161;28;20052;-68
2021/06/07 06:24:12;;;;;;;22.35;15.70;;;;;;;;;;5102005;28;20480;-68
2021/06/07 06:26:39;;;;;;;26.05;16.67;;;;;;;;;;5108153;28;20533;-68
2021/06/07 06:29:06;;;;;;;20.30;15.20;;;;;;;;;;5101977;28;20391;-68
2021/06/07 06:31:34;;;;;;;27.35;17.02;;;;;;;;;;5112532;28;20126;-68
2021/06/07 06:34:01;;;;;;;23.13;18.25;;;;;;;;;;5111196;28;20089;-68
2021/06/07 06:36:27;;;;;;;26.35;17.27;;;;;;;;;;5110652;28;20051;-68
2021/06/07 06:38:53;;;;;;;24.00;15.45;;;;;;;;;;5109658;28;20066;-68
2021/06/07 06:41:19;;;;;;;21.52;15.80;;;;;;;;;;5112187;28;20050;-68
2021/06/07 06:43:45;;;;;;;21.98;14.90;;;;;;;;;;5102771;28;20126;-67
2021/06/07 06:46:11;;;;;;;26.15;15.07;;;;;;;;;;5101405;28;20439;-68
2021/06/07 06:48:39;;;;;;;22.15;13.70;;;;;;;;;;5100330;28;20132;-68
2021/06/07 06:51:06;;;;;;;23.63;14.23;;;;;;;;;;5104215;28;20048;-68
2021/06/07 06:53:32;;;;;;;24.00;14.23;;;;;;;;;;5112234;28;20048;-68
2021/06/07 06:55:58;;;;;;;16.52;12.13;;;;;;;;;;5097476;28;20059;-68
2021/06/07 06:58:24;;;;;;;19.65;13.82;;;;;;;;;;5107742;28;20460;-69
2021/06/07 07:00:50;;;;;;;15.57;12.52;;;;;;;;;;5111303;28;20047;-67
2021/06/07 07:03:17;;;;;;;15.77;11.63;;;;;;;;;;5110869;28;20059;-68
2021/06/07 07:05:46;;;;;;;18.83;11.73;;;;;;;;;;5104203;28;20051;-68
2021/06/07 07:08:12;;;;;;;15.52;11.40;;;;;;;;;;5112373;27;20051;-68
2021/06/07 07:10:41;;;;;;;17.58;10.93;;;;;;;;;;5110755;28;20770;-68
2021/06/07 07:13:07;;;;;;;14.77;9.70;;;;;;;;;;5112655;28;20545;-68
2021/06/07 07:15:33;;;;;;;13.68;8.70;;;;;;;;;;5114112;28;20051;-68
2021/06/07 07:18:00;;;;;;;12.05;8.32;;;;;;;;;;5112443;28;20104;-68
2021/06/07 07:20:26;;;;;;;13.15;8.00;;;;;;;;;;5112203;28;20046;-68
2021/06/07 07:22:53;;;;;;;11.55;6.78;;;;;;;;;;5104850;28;20066;-68
2021/06/07 07:25:21;;;;;;;8.27;6.43;;;;;;;;;;5111209;28;20063;-68
2021/06/07 07:27:47;;;;;;;7.40;5.05;;;;;;;;;;5112153;27;20058;-68
2021/06/07 07:30:17;;;;;;;6.63;5.28;;;;;;;;;;5103743;28;20048;-68
2021/06/07 07:32:44;;;;;;;8.05;5.22;;;;;;;;;;5108220;28;20085;-68
2021/06/07 07:35:11;;;;;;;6.65;4.97;;;;;;;;;;5111131;28;20104;-68
2021/06/07 07:37:38;;;;;;;6.80;4.35;;;;;;;;;;5112806;28;20043;-68
2021/06/07 07:40:08;;;;;;;16.33;6.82;;;;;;;;;;5111836;28;20073;-68
2021/06/07 07:42:34;;;;;;;6.00;4.40;;;;;;;;;;5112197;28;20536;-68
2021/06/07 07:45:02;;;;;;;7.55;4.93;;;;;;;;;;5112489;28;20484;-68
2021/06/07 07:47:28;;;;;;;6.30;4.55;;;;;;;;;;5112654;28;20051;-68
2021/06/07 07:49:54;;;;;;;6.47;4.78;;;;;;;;;;5113151;28;20427;-68
2021/06/07 07:52:23;;;;;;;5.20;3.60;;;;;;;;;;5116603;27;20138;-67
2021/06/07 07:54:50;;;;;;;4.40;3.35;;;;;;;;;;5124252;27;20075;-67
2021/06/07 07:57:18;;;;;;;4.25;3.13;;;;;;;;;;5112811;27;20039;-67
2021/06/07 07:59:44;;;;;;;4.53;3.05;;;;;;;;;;5112015;28;20065;-67
2021/06/07 08:02:10;;;;;;;5.63;3.10;;;;;;;;;;5110570;28;20468;-67
2021/06/07 08:04:37;;;;;;;4.88;3.50;;;;;;;;;;5109697;28;20043;-68
2021/06/07 08:07:03;;;;;;;4.55;3.28;;;;;;;;;;5111491;28;20043;-67
2021/06/07 08:09:30;;;;;;;5.10;3.40;;;;;;;;;;5112158;28;20536;-67
2021/06/07 08:11:57;;;;;;;5.10;2.67;;;;;;;;;;5109790;28;20472;-68
2021/06/07 08:14:25;;;;;;;5.88;3.67;;;;;;;;;;5110968;28;20056;-68
2021/06/07 08:16:52;;;;;;;3.00;2.05;;;;;;;;;;5111484;28;20040;-67
2021/06/07 08:19:18;;;;;;;4.28;2.85;;;;;;;;;;5111077;28;20051;-67
2021/06/07 08:21:44;;;;;;;4.50;2.28;;;;;;;;;;5111703;28;20286;-68
2021/06/07 08:24:10;;;;;;;2.97;1.52;;;;;;;;;;5110050;28;20595;-68
2021/06/07 08:26:36;;;;;;;2.47;1.95;;;;;;;;;;5111293;28;20062;-68
2021/06/07 08:29:03;;;;;;;3.20;1.88;;;;;;;;;;5106603;28;20173;-68
2021/06/07 08:31:30;;;;;;;3.22;1.70;;;;;;;;;;5102302;28;20489;-68
2021/06/07 08:33:56;;;;;;;2.70;1.85;;;;;;;;;;5110647;28;20050;-68
2021/06/07 08:36:22;;;;;;;2.88;1.90;;;;;;;;;;5111090;28;20052;-67
2021/06/07 08:38:48;;;;;;;1.88;1.52;;;;;;;;;;5110807;28;20043;-68
2021/06/07 08:41:14;;;;;;;1.65;1.50;;;;;;;;;;5111218;28;20580;-67
2021/06/07 08:43:40;;;;;;;1.88;1.35;;;;;;;;;;5110347;28;20100;-67
2021/06/07 08:46:07;;;;;;;3.40;1.58;;;;;;;;;;5110200;28;20055;-67
2021/06/07 08:48:35;;;;;;;2.30;1.63;;;;;;;;;;5111474;28;20050;-68
2021/06/07 08:51:02;;;;;;;1.83;1.40;;;;;;;;;;5112006;28;20054;-67
2021/06/07 08:53:28;;;;;;;2.40;1.45;;;;;;;;;;5110090;28;20104;-67
2021/06/07 08:55:54;;;;;;;2.58;1.55;;;;;;;;;;5112206;28;20051;-65
2021/06/07 08:58:20;;;;;;;3.28;1.40;;;;;;;;;;5111924;28;20051;-68
2021/06/07 09:00:47;;;;;;;1.30;1.00;;;;;;;;;;5107993;28;20047;-68
2021/06/07 09:03:14;;;;;;;2.65;1.25;;;;;;;;;;5104805;28;20052;-68
2021/06/07 09:05:43;;;;;;;3.28;1.40;;;;;;;;;;5108905;28;20054;-68
2021/06/07 09:08:11;;;;;;;2.30;1.33;;;;;;;;;;5123634;28;20190;-67
2021/06/07 09:10:41;;;;;;;3.90;1.13;;;;;;;;;;5124413;27;20048;-67
2021/06/07 09:13:09;;;;;;;1.00;0.90;;;;;;;;;;5111391;28;20068;-67
2021/06/07 09:15:37;;;;;;;2.05;0.95;;;;;;;;;;5111037;28;20381;-68
2021/06/07 09:18:05;;;;;;;1.90;0.88;;;;;;;;;;5111052;28;20043;-68
2021/06/07 09:20:32;;;;;;;2.38;0.80;;;;;;;;;;5111915;28;20052;-68
2021/06/07 09:23:00;;;;;;;2.97;1.00;;;;;;;;;;5110641;28;20051;-68
2021/06/07 09:25:28;;;;;;;1.17;0.80;;;;;;;;;;5110724;28;20136;-67
2021/06/07 09:28:14;;;;;;;2.28;0.93;;;;;;;;;;5110086;28;20047;-67
2021/06/07 09:30:43;;;;;;;1.35;0.90;;;;;;;;;;5109327;28;20043;-68
2021/06/07 09:33:25;;;;;;;1.25;0.82;;;;;;;;;;5104222;28;20380;-68
2021/06/07 09:36:17;;;;;;;1.95;0.93;;;;;;;;;;5110606;28;20044;-67
2021/06/07 09:39:10;;;;;;;0.88;0.82;;;;;;;;;;5108676;28;20105;-67
2021/06/07 09:41:51;;;;;;;2.10;0.93;;;;;;;;;;5111328;28;20063;-67
2021/06/07 09:44:25;;;;;;;2.63;1.02;;;;;;;;;;5113641;28;20480;-67
2021/06/07 09:46:52;;;;;;;1.20;0.88;;;;;;;;;;5107832;28;20073;-67
2021/06/07 09:49:20;;;;;;;1.52;1.00;;;;;;;;;;5114226;28;20047;-67
2021/06/07 09:51:54;;;;;;;1.35;0.93;;;;;;;;;;5114557;28;20070;-68
2021/06/07 09:54:22;;;;;;;2.58;1.00;;;;;;;;;;5112288;28;20119;-67
2021/06/07 09:56:51;;;;;;;1.50;0.80;;;;;;;;;;5104606;28;20083;-68
2021/06/07 09:59:25;;;;;;;3.33;0.90;;;;;;;;;;5114792;28;20138;-67
2021/06/07 10:01:51;;;;;;;3.15;0.98;;;;;;;;;;5113665;28;20108;-68
2021/06/07 10:04:17;;;;;;;1.83;0.90;;;;;;;;;;5112113;28;20058;-68
2021/06/07 10:06:43;;;;;;;1.75;0.80;;;;;;;;;;5113200;28;20043;-68
2021/06/07 10:09:11;;;;;;;3.60;0.90;;;;;;;;;;5113189;28;20396;-67
2021/06/07 10:11:41;;;;;;;0.75;0.50;;;;;;;;;;5114099;28;20046;-68
2021/06/07 10:14:09;;;;;;;1.27;0.60;;;;;;;;;;5113682;28;20059;-68
2021/06/07 10:16:37;;;;;;;1.20;0.70;;;;;;;;;;5114136;27;20081;-68
2021/06/07 10:19:06;;;;;;;0.88;0.60;;;;;;;;;;5114492;28;20048;-68
2021/06/07 10:21:32;;;;;;;0.95;0.50;;;;;;;;;;5112758;28;20050;-68
2021/06/07 10:24:00;;;;;;;0.63;0.60;;;;;;;;;;5114022;28;20399;-68
2021/06/07 10:26:26;;;;;;;1.70;0.70;;;;;;;;;;5114017;28;20058;-68
2021/06/07 10:28:54;;;;;;;0.57;0.57;;;;;;;;;;5112420;28;20055;-68
2021/06/07 10:31:22;;;;;;;1.30;0.80;;;;;;;;;;5109003;28;20060;-68
2021/06/07 10:34:00;;;;;;;2.10;0.57;;;;;;;;;;5102992;28;20101;-68
2021/06/07 10:36:33;;;;;;;2.13;0.60;;;;;;;;;;5113448;28;20047;-68
2021/06/07 10:39:23;;;;;;;0.73;0.45;;;;;;;;;;5113928;28;20048;-68
2021/06/07 10:41:50;;;;;;;1.55;0.55;;;;;;;;;;5111780;28;20377;-67
2021/06/07 10:44:33;;;;;;;2.42;0.60;;;;;;;;;;5110659;28;20035;-67
2021/06/07 10:47:03;;;;;;;0.68;0.40;;;;;;;;;;5111906;28;20058;-67
2021/06/07 10:49:37;;;;;;;0.43;0.43;;;;;;;;;;5110440;28;20529;-68
2021/06/07 10:52:08;;;;;;;0.90;0.60;;;;;;;;;;5111332;28;20058;-68
2021/06/07 10:54:35;;;;;;;0.70;0.50;;;;;;;;;;5111699;28;20392;-68
2021/06/07 10:57:33;;;;;;;1.77;0.93;;;;;;;;;;5110868;28;20056;-69
2021/06/07 11:00:06;;;;;;;0.68;0.60;;;;;;;;;;5111635;28;20055;-68
2021/06/07 11:02:35;;;;;;;1.25;0.50;;;;;;;;;;5112139;27;20369;-68
2021/06/07 11:05:06;;;;;;;2.55;0.68;;;;;;;;;;5113046;28;20047;-69
2021/06/07 11:07:32;;;;;;;1.88;0.70;;;;;;;;;;5110668;28;20043;-69
2021/06/07 11:10:20;;;;;;;2.22;0.80;;;;;;;;;;5112085;28;20055;-69
2021/06/07 11:12:46;;;;;;;2.00;0.63;;;;;;;;;;5108285;28;20773;-69
2021/06/07 11:15:16;;;;;;;0.77;0.40;;;;;;;;;;5111988;28;20039;-68
2021/06/07 11:17:42;;;;;;;1.88;0.50;;;;;;;;;;5111878;28;20052;-68
2021/06/07 11:20:10;;;;;;;1.08;0.70;;;;;;;;;;5112236;28;20129;-69
2021/06/07 11:23:03;;;;;;;0.85;0.40;;;;;;;;;;5111584;27;20054;-68
2021/06/07 11:25:29;;;;;;;1.67;0.57;;;;;;;;;;5107379;28;20377;-68
2021/06/07 11:27:55;;;;;;;1.17;0.60;;;;;;;;;;5112438;28;20047;-68
2021/06/07 11:30:23;;;;;;;5.35;1.63;;;;;;;;;;5112232;28;20054;-68
2021/06/07 11:32:49;;;;;;;0.70;0.50;;;;;;;;;;5109765;28;20043;-68
2021/06/07 11:35:39;;;;;;;0.60;0.50;;;;;;;;;;5100254;28;20056;-68
2021/06/07 11:38:33;;;;;;;0.63;0.52;;;;;;;;;;5112485;28;20060;-68
2021/06/07 11:41:00;;;;;;;1.17;0.50;;;;;;;;;;5108646;27;20055;-69
2021/06/07 11:43:53;;;;;;;4.85;0.60;;;;;;;;;;5109208;28;20131;-68
2021/06/07 11:46:56;;;;;;;4.43;0.95;;;;;;;;;;5107180;28;20057;-69
2021/06/07 11:49:22;;;;;;;0.55;0.50;;;;;;;;;;5107466;28;20256;-69
2021/06/07 11:52:06;;;;;;;5.22;0.90;;;;;;;;;;5111820;28;20054;-68
2021/06/07 11:54:52;;;;;;;0.50;0.50;;;;;;;;;;5106967;28;20153;-69
2021/06/07 11:57:22;;;;;;;0.40;0.40;;;;;;;;;;5106361;28;20066;-68
2021/06/07 11:59:56;;;;;;;1.10;0.55;;;;;;;;;;5100803;28;20044;-69
2021/06/07 12:02:25;;;;;;;1.23;0.82;;;;;;;;;;5106610;28;20616;-68
2021/06/07 12:04:51;;;;;;;0.40;0.40;;;;;;;;;;5105598;28;20086;-69
2021/06/07 12:07:18;;;;;;;0.40;0.32;;;;;;;;;;5099595;28;20056;-68
2021/06/07 12:09:48;;;;;;;0.40;0.40;;;;;;;;;;5106743;28;20051;-68
2021/06/07 12:12:15;;;;;;;3.53;0.70;;;;;;;;;;5108886;28;20052;-68
2021/06/07 12:14:42;;;;;;;1.27;0.40;;;;;;;;;;5109875;28;20136;-68
2021/06/07 12:17:10;;;;;;;3.15;1.10;;;;;;;;;;5110353;28;20075;-68
2021/06/07 12:19:40;;;;;;;2.05;0.60;;;;;;;;;;5110972;28;20070;-68
2021/06/07 12:22:07;;;;;;;1.95;0.90;;;;;;;;;;5111384;28;20428;-68
2021/06/07 12:24:34;;;;;;;3.08;0.90;;;;;;;;;;5109148;28;20486;-69
2021/06/07 12:29:47;;;;;;;4.82;1.00;;;;;;;;;;5109971;28;20047;-69
2021/06/07 12:32:18;;;;;;;1.55;0.65;;;;;;;;;;5109837;28;20051;-68
2021/06/07 12:35:05;;;;;;;1.45;0.80;;;;;;;;;;5107907;28;20046;-68
2021/06/07 12:37:32;;;;;;;1.13;0.75;;;;;;;;;;5110029;28;20666;-68
2021/06/07 12:40:30;;;;;;;1.13;0.68;;;;;;;;;;5105895;28;20104;-68
2021/06/07 12:42:59;;;;;;;2.50;0.90;;;;;;;;;;5109496;28;20048;-68
2021/06/07 12:45:29;;;;;;;1.08;0.60;;;;;;;;;;5108681;28;20058;-68
2021/06/07 12:48:10;;;;;;;1.20;1.10;;;;;;;;;;5110331;28;20079;-68
2021/06/07 12:50:38;;;;;;;0.80;0.77;;;;;;;;;;5110353;28;20412;-68
2021/06/07 12:53:05;;;;;;;0.93;0.82;;;;;;;;;;5107558;28;20051;-67
2021/06/07 12:55:37;;;;;;;1.40;0.90;;;;;;;;;;5110003;28;20055;-68
2021/06/07 12:58:09;;;;;;;1.20;0.70;;;;;;;;;;5101550;28;20051;-69
2021/06/07 13:00:37;;;;;;;1.98;0.88;;;;;;;;;;5096291;28;20044;-69
2021/06/07 13:03:16;;;;;;;1.13;0.80;;;;;;;;;;5111440;28;20090;-69
2021/06/07 13:05:44;;;;;;;1.80;1.05;;;;;;;;;;5111338;28;20517;-69
2021/06/07 13:08:19;;;;;;;2.00;1.00;;;;;;;;;;5097723;28;20048;-69
2021/06/07 13:10:47;;;;;;;0.98;0.93;;;;;;;;;;5103726;28;20047;-69
2021/06/07 13:13:28;;;;;;;1.80;1.30;;;;;;;;;;5108320;27;20044;-69
2021/06/07 13:16:07;;;;;;;1.23;0.80;;;;;;;;;;5109726;28;20468;-69
2021/06/07 13:18:36;;;;;;;1.10;0.88;;;;;;;;;;5114989;28;20047;-69
2021/06/07 13:21:05;;;;;;;5.97;1.30;;;;;;;;;;5095969;28;20072;-70
2021/06/07 13:23:33;;;;;;;2.78;0.98;;;;;;;;;;5102311;28;20096;-69
2021/06/07 13:26:18;;;;;;;1.85;1.10;;;;;;;;;;5113077;27;20382;-72
2021/06/07 13:28:44;;;;;;;2.63;1.30;;;;;;;;;;5115419;27;20051;-70
2021/06/07 13:31:10;;;;;;;2.40;1.10;;;;;;;;;;5113731;27;20414;-71
2021/06/07 13:33:39;;;;;;;1.50;1.23;;;;;;;;;;5109480;28;20048;-71
2021/06/07 13:36:08;;;;;;;2.25;1.30;;;;;;;;;;5109337;28;20056;-72
2021/06/07 13:38:35;;;;;;;9.77;1.50;;;;;;;;;;5112049;28;20050;-72
2021/06/07 13:41:12;;;;;;;4.53;1.60;;;;;;;;;;5117845;27;20059;-70
2021/06/07 13:43:39;;;;;;;1.55;1.30;;;;;;;;;;5112551;28;20481;-70
2021/06/07 13:46:05;;;;;;;1.88;1.30;;;;;;;;;;5108456;28;20101;-69
2021/06/07 13:48:36;;;;;;;2.67;1.30;;;;;;;;;;5112097;28;20059;-68
2021/06/07 13:51:03;;;;;;;2.92;1.40;;;;;;;;;;5109306;28;20047;-70
2021/06/07 13:53:35;;;;;;;2.58;1.20;;;;;;;;;;5110060;28;20105;-69
2021/06/07 13:56:04;;;;;;;3.67;1.10;;;;;;;;;;5110502;28;20059;-72
2021/06/07 13:58:38;;;;;;;1.85;1.13;;;;;;;;;;5112191;28;20349;-69
2021/06/07 14:01:05;;;;;;;2.33;1.15;;;;;;;;;;5112853;28;20438;-69
2021/06/07 14:03:32;;;;;;;2.28;1.08;;;;;;;;;;5112557;28;20077;-71
2021/06/07 14:06:01;;;;;;;1.95;1.45;;;;;;;;;;5112182;28;20138;-68
2021/06/07 14:08:29;;;;;;;2.55;1.50;;;;;;;;;;5113799;28;20051;-67
2021/06/07 14:10:58;;;;;;;6.00;1.65;;;;;;;;;;5113442;28;20105;-69
2021/06/07 14:13:24;;;;;;;3.53;1.30;;;;;;;;;;5111065;28;20118;-68
2021/06/07 14:15:50;;;;;;;3.53;1.20;;;;;;;;;;5113411;28;20051;-68
2021/06/07 14:18:17;;;;;;;1.90;1.40;;;;;;;;;;5112418;28;20044;-68
2021/06/07 14:20:46;;;;;;;2.13;1.20;;;;;;;;;;5113582;28;20083;-69
2021/06/07 14:26:04;;;;;;;2.53;1.70;;;;;;;;;;5112102;28;20061;-68
2021/06/07 14:28:30;;;;;;;2.50;2.00;;;;;;;;;;5111718;28;20043;-68
2021/06/07 14:30:56;;;;;;;4.00;1.60;;;;;;;;;;5112036;28;20461;-68
2021/06/07 14:33:22;;;;;;;4.22;1.75;;;;;;;;;;5112459;28;20043;-68
2021/06/07 14:35:49;;;;;;;2.45;1.95;;;;;;;;;;5110944;28;20043;-68
2021/06/07 14:38:15;;;;;;;3.10;2.05;;;;;;;;;;5111780;28;20384;-68
2021/06/07 14:40:41;;;;;;;5.13;2.15;;;;;;;;;;5110054;28;20112;-68
2021/06/07 14:43:10;;;;;;;2.75;1.83;;;;;;;;;;5110406;28;20136;-68
2021/06/07 14:45:37;;;;;;;4.65;2.00;;;;;;;;;;5113122;28;20376;-68